Time;durP1;ratioP1;P1;durP2;ratioP2;P2;SDS_P1;SDS_P2;PMS_P1;PMS_P2;Temp;Humidity;BMP_temperature;BMP_pressure;BME280_temperature;BME280_humidity;BME280_pressure;Samples;Min_cycle;Max_cycle;Signal;HPM_P1;HPM_P2
2023/11/10 00:02:02;;;;;;;4.03;3.28;;;7.20;94.40;;;;;;5013013;28;20200;-89
2023/11/10 00:04:29;;;;;;;3.38;2.63;;;7.10;94.90;;;;;;5015045;28;20206;-90
2023/11/10 00:06:58;;;;;;;3.75;2.85;;;7.00;95.30;;;;;;5013065;28;20219;-89
2023/11/10 00:09:27;;;;;;;4.35;2.50;;;6.90;95.30;;;;;;5012216;28;20199;-89
2023/11/10 00:11:56;;;;;;;2.97;2.60;;;6.90;95.50;;;;;;5017434;28;20203;-89
2023/11/10 00:14:23;;;;;;;3.58;3.00;;;6.80;95.70;;;;;;5009194;28;20659;-89
2023/11/10 00:16:49;;;;;;;3.55;2.75;;;6.70;95.80;;;;;;5019238;28;20200;-87
2023/11/10 00:19:18;;;;;;;5.22;2.95;;;6.60;96.10;;;;;;5014155;28;20273;-90
2023/11/10 00:21:46;;;;;;;3.55;2.95;;;6.60;96.60;;;;;;5012504;28;20199;-89
2023/11/10 00:24:13;;;;;;;3.60;3.15;;;6.90;96.20;;;;;;5008948;28;20296;-90
2023/11/10 00:26:40;;;;;;;5.28;2.95;;;6.70;95.40;;;;;;5012877;28;20219;-89
2023/11/10 00:29:07;;;;;;;4.30;3.58;;;6.60;95.40;;;;;;5018815;28;20282;-89
2023/11/10 00:31:34;;;;;;;3.00;2.67;;;6.60;95.90;;;;;;5017108;28;20648;-90
2023/11/10 00:34:01;;;;;;;7.68;2.85;;;6.50;95.90;;;;;;5008439;28;20199;-89
2023/11/10 00:36:29;;;;;;;7.32;3.45;;;6.30;96.20;;;;;;5020083;28;20203;-88
2023/11/10 00:38:56;;;;;;;4.85;3.00;;;6.30;96.90;;;;;;5011397;28;20207;-89
2023/11/10 00:41:23;;;;;;;3.57;2.70;;;6.20;96.70;;;;;;5019751;28;20655;-88
2023/11/10 00:43:50;;;;;;;4.53;3.40;;;6.10;96.90;;;;;;5004121;28;20248;-85
2023/11/10 00:46:17;;;;;;;4.17;2.80;;;6.10;96.90;;;;;;5009228;28;20680;-88
2023/11/10 00:48:44;;;;;;;3.73;2.90;;;6.00;97.00;;;;;;5010848;28;20203;-89
2023/11/10 00:51:10;;;;;;;3.80;2.73;;;6.00;97.50;;;;;;5017201;28;20584;-87
2023/11/10 00:53:39;;;;;;;4.60;3.35;;;6.00;97.30;;;;;;5013685;28;20202;-88
2023/11/10 00:56:06;;;;;;;3.77;3.00;;;5.90;97.60;;;;;;5010890;28;20227;-89
2023/11/10 00:58:33;;;;;;;3.25;2.65;;;5.90;97.50;;;;;;5012156;28;20198;-88
2023/11/10 01:01:01;;;;;;;4.13;2.77;;;5.90;97.50;;;;;;5013851;28;20556;-87
2023/11/10 01:03:27;;;;;;;3.20;2.85;;;5.80;97.40;;;;;;5004969;28;20195;-89
2023/11/10 01:05:54;;;;;;;4.50;2.80;;;5.70;97.70;;;;;;5007434;28;20298;-88
2023/11/10 01:08:21;;;;;;;4.77;3.17;;;5.70;97.80;;;;;;5010949;28;20203;-89
2023/11/10 01:10:49;;;;;;;4.20;3.13;;;5.70;98.50;;;;;;5012613;28;20203;-86
2023/11/10 01:13:17;;;;;;;3.20;2.73;;;5.80;97.80;;;;;;5016284;28;20205;-86
2023/11/10 01:15:44;;;;;;;3.20;2.83;;;5.70;97.70;;;;;;5008980;28;20223;-86
2023/11/10 01:18:11;;;;;;;2.73;2.53;;;5.60;97.80;;;;;;5016391;28;20217;-86
2023/11/10 01:20:38;;;;;;;4.97;3.37;;;5.50;98.10;;;;;;5018612;28;20190;-87
2023/11/10 01:23:05;;;;;;;8.37;2.93;;;5.50;98.00;;;;;;5014936;28;20664;-89
2023/11/10 01:25:32;;;;;;;4.60;3.60;;;5.50;98.10;;;;;;5020005;28;20242;-86
2023/11/10 01:28:00;;;;;;;11.43;8.00;;;5.80;98.20;;;;;;5012764;28;20868;-90
2023/11/10 01:30:27;;;;;;;50.77;37.40;;;5.90;97.60;;;;;;5005670;28;20222;-89
2023/11/10 01:32:55;;;;;;;3.87;2.67;;;6.20;97.20;;;;;;5011809;28;20218;-86
2023/11/10 01:35:22;;;;;;;4.13;2.70;;;6.10;95.40;;;;;;5010641;28;20294;-85
2023/11/10 01:37:49;;;;;;;3.53;2.70;;;5.80;95.60;;;;;;5012638;28;20200;-87
2023/11/10 01:40:16;;;;;;;5.77;4.10;;;5.60;96.60;;;;;;5012359;28;20309;-86
2023/11/10 01:42:43;;;;;;;5.43;3.13;;;5.50;97.20;;;;;;5009090;28;20198;-87
2023/11/10 01:45:12;;;;;;;3.63;2.90;;;5.40;97.40;;;;;;5006702;28;20199;-86
2023/11/10 01:47:40;;;;;;;4.53;3.10;;;5.20;97.70;;;;;;5012814;28;20219;-87
2023/11/10 01:50:09;;;;;;;4.50;3.30;;;5.20;97.70;;;;;;5007654;28;20206;-87
2023/11/10 01:52:36;;;;;;;4.57;3.13;;;5.20;97.90;;;;;;5014914;28;20243;-86
2023/11/10 01:55:03;;;;;;;4.30;3.00;;;5.20;97.70;;;;;;5010026;28;20207;-87
2023/11/10 01:57:30;;;;;;;3.10;2.80;;;5.20;97.70;;;;;;5012313;28;20566;-86
2023/11/10 02:00:01;;;;;;;7.23;4.83;;;5.20;97.20;;;;;;5009263;28;20196;-86
2023/11/10 02:02:30;;;;;;;5.03;3.20;;;5.30;97.50;;;;;;5015659;28;20253;-85
2023/11/10 02:04:57;;;;;;;6.63;3.57;;;5.40;96.60;;;;;;5005511;28;20661;-86
2023/11/10 02:07:24;;;;;;;3.67;3.10;;;5.40;96.10;;;;;;5018999;28;20222;-86
2023/11/10 02:09:51;;;;;;;3.63;2.87;;;5.40;96.00;;;;;;5012797;28;20207;-87
2023/11/10 02:12:18;;;;;;;5.13;3.27;;;5.30;95.90;;;;;;5005117;28;20256;-86
2023/11/10 02:14:45;;;;;;;4.27;3.10;;;5.20;96.10;;;;;;5002668;28;20204;-87
2023/11/10 02:17:14;;;;;;;8.27;3.97;;;5.30;96.00;;;;;;5017786;28;20206;-85
2023/11/10 02:19:42;;;;;;;7.30;3.20;;;5.50;96.20;;;;;;5016747;28;20246;-86
2023/11/10 02:22:09;;;;;;;3.30;3.00;;;5.50;95.40;;;;;;5012489;28;20202;-86
2023/11/10 02:24:38;;;;;;;4.00;3.47;;;5.40;95.50;;;;;;5013476;28;20269;-86
2023/11/10 02:27:07;;;;;;;5.60;4.73;;;5.30;95.70;;;;;;5010086;28;20229;-86
2023/11/10 02:29:39;;;;;;;4.47;3.30;;;5.30;96.30;;;;;;5006851;28;20264;-86
2023/11/10 02:32:06;;;;;;;5.70;3.40;;;5.20;96.10;;;;;;5008366;28;20250;-85
2023/11/10 02:34:33;;;;;;;7.87;3.43;;;5.20;95.90;;;;;;5017051;28;20195;-86
2023/11/10 02:37:00;;;;;;;4.13;3.43;;;5.20;96.00;;;;;;5014829;28;20199;-87
2023/11/10 02:39:28;;;;;;;4.07;3.27;;;5.20;95.60;;;;;;5013823;28;20221;-86
2023/11/10 02:41:55;;;;;;;3.80;3.17;;;5.20;95.90;;;;;;5016796;28;20213;-86
2023/11/10 02:44:23;;;;;;;4.27;3.57;;;5.30;95.70;;;;;;5013458;28;20206;-89
2023/11/10 02:46:51;;;;;;;3.37;2.80;;;5.30;95.50;;;;;;5013027;28;20219;-87
2023/11/10 02:49:20;;;;;;;5.47;3.40;;;5.40;95.60;;;;;;5007449;28;20210;-86
2023/11/10 02:51:47;;;;;;;6.07;3.70;;;5.40;95.20;;;;;;5007476;28;20242;-86
2023/11/10 02:54:14;;;;;;;7.30;5.63;;;5.40;95.20;;;;;;5015739;28;20675;-87
2023/11/10 02:56:40;;;;;;;4.30;3.17;;;5.80;94.80;;;;;;5011393;28;20204;-88
2023/11/10 02:59:07;;;;;;;4.00;3.00;;;6.00;93.30;;;;;;5036331;28;20183;-88
2023/11/10 03:01:35;;;;;;;5.70;4.40;;;5.90;93.40;;;;;;5040604;28;20203;-86
2023/11/10 03:04:02;;;;;;;3.97;3.07;;;6.00;94.00;;;;;;5029863;28;20199;-86
2023/11/10 03:06:29;;;;;;;3.63;2.97;;;6.10;92.70;;;;;;5011338;28;20201;-89
2023/11/10 03:08:56;;;;;;;4.53;3.03;;;6.20;92.60;;;;;;5009010;28;20199;-89
2023/11/10 03:11:24;;;;;;;3.50;2.90;;;6.10;92.60;;;;;;5012995;28;20203;-89
2023/11/10 03:13:54;;;;;;;3.17;2.87;;;6.00;92.60;;;;;;5013360;28;20203;-88
2023/11/10 03:16:21;;;;;;;5.30;3.07;;;5.90;93.00;;;;;;5005907;28;20306;-89
2023/11/10 03:18:52;;;;;;;5.27;3.03;;;5.80;93.40;;;;;;5014612;28;20196;-86
2023/11/10 03:21:19;;;;;;;4.33;3.23;;;5.70;93.60;;;;;;5003748;28;20282;-89
2023/11/10 03:23:47;;;;;;;4.10;3.10;;;5.70;93.40;;;;;;5014464;28;20209;-89
2023/11/10 03:26:14;;;;;;;3.43;2.93;;;5.80;93.70;;;;;;4990066;28;20215;-88
2023/11/10 03:28:41;;;;;;;4.50;3.27;;;5.80;93.70;;;;;;5011430;28;20250;-89
2023/11/10 03:31:08;;;;;;;5.30;3.20;;;5.70;93.70;;;;;;5012661;28;20648;-89
2023/11/10 03:33:35;;;;;;;3.67;3.23;;;5.70;93.70;;;;;;5007757;28;20202;-89
2023/11/10 03:36:04;;;;;;;4.10;3.20;;;5.70;93.10;;;;;;5008510;28;20205;-89
2023/11/10 03:38:31;;;;;;;3.87;3.20;;;5.80;94.00;;;;;;5016235;28;20207;-89
2023/11/10 03:40:59;;;;;;;3.73;2.73;;;5.90;93.00;;;;;;5009735;28;20575;-89
2023/11/10 03:43:28;;;;;;;3.67;3.07;;;5.70;93.10;;;;;;5010480;28;20211;-89
2023/11/10 03:45:55;;;;;;;4.07;3.10;;;5.60;93.30;;;;;;5007282;28;20210;-87
2023/11/10 03:48:22;;;;;;;3.50;3.03;;;5.50;93.80;;;;;;5018564;28;20233;-87
2023/11/10 03:50:49;;;;;;;5.97;3.40;;;5.40;93.90;;;;;;5014320;28;20576;-89
2023/11/10 03:53:18;;;;;;;3.87;3.00;;;5.40;95.00;;;;;;5011344;28;20199;-89
2023/11/10 03:55:44;;;;;;;3.37;2.97;;;5.40;94.00;;;;;;5013865;28;20218;-87
2023/11/10 03:58:12;;;;;;;4.17;2.63;;;5.40;94.20;;;;;;5011708;28;20226;-89
2023/11/10 04:00:38;;;;;;;3.53;3.17;;;5.30;94.50;;;;;;4998014;28;20200;-87
2023/11/10 04:03:05;;;;;;;4.03;3.20;;;5.20;95.10;;;;;;5011887;28;20203;-89
2023/11/10 04:05:32;;;;;;;6.43;3.50;;;5.20;95.10;;;;;;5006118;28;20208;-88
2023/11/10 04:07:59;;;;;;;5.37;3.00;;;5.20;95.10;;;;;;5013126;28;20218;-87
2023/11/10 04:10:28;;;;;;;3.80;3.40;;;5.40;95.20;;;;;;5004498;28;20211;-88
2023/11/10 04:12:55;;;;;;;3.73;3.33;;;5.70;95.20;;;;;;5025514;28;20257;-88
2023/11/10 04:15:22;;;;;;;3.70;2.80;;;6.10;94.50;;;;;;5011397;28;20196;-87
2023/11/10 04:17:49;;;;;;;3.10;2.80;;;6.30;93.10;;;;;;5012680;28;20196;-87
2023/11/10 04:20:16;;;;;;;3.43;3.00;;;6.10;92.60;;;;;;5009635;28;20287;-87
2023/11/10 04:22:43;;;;;;;3.80;2.77;;;6.10;92.90;;;;;;5015704;28;20245;-87
2023/11/10 04:25:10;;;;;;;3.23;2.93;;;6.00;93.10;;;;;;5021053;28;20204;-88
2023/11/10 04:27:39;;;;;;;3.47;3.17;;;6.00;93.50;;;;;;5018306;28;20770;-87
2023/11/10 04:30:10;;;;;;;4.67;2.97;;;5.90;93.30;;;;;;5023427;28;20198;-88
2023/11/10 04:32:37;;;;;;;4.73;2.67;;;5.90;93.70;;;;;;5016004;28;20195;-89
2023/11/10 04:35:04;;;;;;;3.50;2.70;;;5.90;93.90;;;;;;5011643;28;20253;-87
2023/11/10 04:37:31;;;;;;;3.10;2.80;;;6.00;93.70;;;;;;5013459;28;20198;-88
2023/11/10 04:39:58;;;;;;;4.77;2.93;;;5.90;93.70;;;;;;5017286;28;20195;-88
2023/11/10 04:42:25;;;;;;;3.97;3.03;;;5.80;93.80;;;;;;5008093;28;20195;-87
2023/11/10 04:44:53;;;;;;;5.23;2.77;;;5.70;94.20;;;;;;5009209;28;20222;-88
2023/11/10 04:47:19;;;;;;;3.37;2.63;;;5.70;95.00;;;;;;5013596;28;20199;-88
2023/11/10 04:49:46;;;;;;;4.47;2.90;;;5.80;94.60;;;;;;5013506;28;20203;-88
2023/11/10 04:52:15;;;;;;;3.53;3.23;;;6.00;94.10;;;;;;5011518;28;20226;-88
2023/11/10 04:54:45;;;;;;;3.20;2.80;;;6.10;94.00;;;;;;5009383;28;20195;-88
2023/11/10 04:57:12;;;;;;;4.53;3.07;;;5.90;94.10;;;;;;5008676;28;20294;-88
2023/11/10 04:59:39;;;;;;;3.43;2.80;;;5.80;93.90;;;;;;5016313;28;20583;-88
2023/11/10 05:02:09;;;;;;;6.07;3.00;;;5.70;93.70;;;;;;5012398;28;20550;-89
2023/11/10 05:04:39;;;;;;;3.90;3.10;;;5.70;94.50;;;;;;5017128;28;20191;-88
2023/11/10 05:07:07;;;;;;;4.50;3.50;;;5.70;94.50;;;;;;5012830;28;20287;-86
2023/11/10 05:09:34;;;;;;;7.80;3.73;;;5.80;94.90;;;;;;5012868;28;20198;-88
2023/11/10 05:12:00;;;;;;;4.80;3.73;;;6.00;93.40;;;;;;5012633;28;20203;-90
2023/11/10 05:14:27;;;;;;;4.67;3.23;;;5.70;93.60;;;;;;5015641;28;20200;-91
2023/11/10 05:16:54;;;;;;;4.60;3.37;;;5.60;94.70;;;;;;5015582;28;20215;-90
2023/11/10 05:19:22;;;;;;;4.60;3.33;;;5.60;94.40;;;;;;5007152;28;20641;-91
2023/11/10 05:21:49;;;;;;;4.00;3.13;;;5.80;94.30;;;;;;5012202;28;20203;-90
2023/11/10 05:24:17;;;;;;;3.60;3.13;;;5.80;93.90;;;;;;5011950;28;20203;-88
2023/11/10 05:26:44;;;;;;;4.20;3.50;;;5.60;93.70;;;;;;5013299;28;20282;-89
2023/11/10 05:29:11;;;;;;;3.67;3.20;;;5.40;94.40;;;;;;5014766;28;20707;-88
2023/11/10 05:31:38;;;;;;;4.70;3.20;;;5.30;94.90;;;;;;5013173;28;20195;-88
2023/11/10 05:34:05;;;;;;;4.67;3.27;;;5.10;95.10;;;;;;5010193;28;20203;-87
2023/11/10 05:36:33;;;;;;;4.50;3.07;;;5.20;95.80;;;;;;5012398;28;20200;-84
2023/11/10 05:39:00;;;;;;;5.67;3.57;;;5.40;95.90;;;;;;5008169;28;20214;-87
2023/11/10 05:41:27;;;;;;;5.13;3.50;;;5.50;94.80;;;;;;5011737;28;20242;-84
2023/11/10 05:43:54;;;;;;;4.60;3.00;;;5.20;95.10;;;;;;5008861;28;20203;-84
2023/11/10 05:46:22;;;;;;;4.47;3.37;;;5.10;95.60;;;;;;5008879;28;20261;-85
2023/11/10 05:48:49;;;;;;;6.30;3.90;;;5.20;96.20;;;;;;5003012;28;20233;-88
2023/11/10 05:51:16;;;;;;;5.77;3.53;;;5.30;96.20;;;;;;5008834;28;20234;-88
2023/11/10 05:53:44;;;;;;;6.27;3.50;;;5.40;95.40;;;;;;5009580;28;20203;-85
2023/11/10 05:56:11;;;;;;;6.90;3.07;;;5.30;95.40;;;;;;5008179;28;20215;-88
2023/11/10 05:58:38;;;;;;;7.30;3.30;;;5.20;95.50;;;;;;5009664;28;20249;-89
2023/11/10 06:01:05;;;;;;;4.97;2.93;;;5.10;95.80;;;;;;5008397;28;20265;-86
2023/11/10 06:03:32;;;;;;;4.60;2.90;;;5.10;96.00;;;;;;5008729;28;20195;-85
2023/11/10 06:05:59;;;;;;;4.27;2.87;;;5.10;95.70;;;;;;5005170;28;20210;-85
2023/11/10 06:08:26;;;;;;;5.60;2.97;;;5.10;95.80;;;;;;5012036;28;20216;-85
2023/11/10 06:10:56;;;;;;;3.27;2.70;;;5.00;95.90;;;;;;5022583;28;20566;-85
2023/11/10 06:13:24;;;;;;;4.73;2.83;;;4.90;96.30;;;;;;5027455;28;20190;-84
2023/11/10 06:15:52;;;;;;;4.07;2.83;;;5.10;96.40;;;;;;5031190;28;20207;-84
2023/11/10 06:18:19;;;;;;;3.73;2.67;;;5.20;96.20;;;;;;5026370;28;20184;-84
2023/11/10 06:20:46;;;;;;;5.13;2.90;;;5.10;96.00;;;;;;5018294;28;20211;-92
2023/11/10 06:23:13;;;;;;;6.57;3.33;;;5.00;96.30;;;;;;5011040;28;20211;-88
2023/11/10 06:25:39;;;;;;;3.70;2.93;;;5.10;96.60;;;;;;5004676;28;20214;-87
2023/11/10 06:28:08;;;;;;;3.83;3.20;;;5.30;96.50;;;;;;5010583;28;20319;-85
2023/11/10 06:30:34;;;;;;;3.53;2.93;;;5.60;96.50;;;;;;5009131;28;20191;-86
2023/11/10 06:33:01;;;;;;;3.57;3.10;;;5.70;95.50;;;;;;5008652;28;20205;-87
2023/11/10 06:35:28;;;;;;;4.60;3.13;;;5.60;95.20;;;;;;5006427;28;20207;-86
2023/11/10 06:37:55;;;;;;;4.03;2.97;;;5.60;95.20;;;;;;5006569;28;20633;-86
2023/11/10 06:40:22;;;;;;;4.03;3.33;;;5.40;95.20;;;;;;5007311;28;20219;-90
2023/11/10 06:42:48;;;;;;;4.30;3.87;;;5.30;95.90;;;;;;5001271;28;20207;-86
2023/11/10 06:45:17;;;;;;;4.90;3.80;;;5.40;96.00;;;;;;5004906;28;20203;-86
2023/11/10 06:47:44;;;;;;;6.07;3.60;;;5.40;96.10;;;;;;5010761;28;20673;-86
2023/11/10 06:50:10;;;;;;;7.20;3.70;;;5.50;95.50;;;;;;5003837;28;20207;-86
2023/11/10 06:52:37;;;;;;;5.57;3.60;;;5.50;95.40;;;;;;5001513;28;20244;-87
2023/11/10 06:55:09;;;;;;;6.27;3.50;;;5.60;95.60;;;;;;5006942;28;20218;-87
2023/11/10 06:57:37;;;;;;;3.90;3.20;;;5.60;95.20;;;;;;5003828;28;20191;-87
2023/11/10 07:00:05;;;;;;;4.63;3.40;;;5.60;95.20;;;;;;5000912;28;20639;-87
2023/11/10 07:02:33;;;;;;;7.10;3.77;;;5.70;95.20;;;;;;5010682;28;20203;-87
2023/11/10 07:05:00;;;;;;;7.10;4.53;;;5.90;95.30;;;;;;5003030;28;20203;-87
2023/11/10 07:07:27;;;;;;;5.73;4.03;;;6.10;94.90;;;;;;5004708;28;20688;-86
2023/11/10 07:09:54;;;;;;;6.93;4.83;;;6.00;94.30;;;;;;5002135;28;20678;-87
2023/11/10 07:12:20;;;;;;;6.13;4.83;;;6.00;94.30;;;;;;5002567;28;20246;-87
2023/11/10 07:14:48;;;;;;;5.80;4.23;;;5.90;95.00;;;;;;5005481;28;20201;-87
2023/11/10 07:17:17;;;;;;;5.20;4.37;;;5.90;95.30;;;;;;5006701;28;20269;-87
2023/11/10 07:19:46;;;;;;;4.70;3.50;;;5.90;95.30;;;;;;4999114;28;20232;-87
2023/11/10 07:22:13;;;;;;;5.10;3.43;;;5.90;95.30;;;;;;5010251;28;20203;-86
2023/11/10 07:24:40;;;;;;;9.87;3.47;;;6.00;95.30;;;;;;5002895;28;20203;-86
2023/11/10 07:27:07;;;;;;;8.80;3.40;;;6.20;95.30;;;;;;5003084;28;20212;-87
2023/11/10 07:29:35;;;;;;;7.30;3.33;;;6.30;95.20;;;;;;5001353;28;20309;-88
2023/11/10 07:32:02;;;;;;;13.20;3.60;;;6.40;95.40;;;;;;5006964;28;20207;-86
2023/11/10 07:34:29;;;;;;;6.10;3.33;;;6.50;94.60;;;;;;5004087;28;20200;-86
2023/11/10 07:36:58;;;;;;;7.60;3.40;;;6.40;94.50;;;;;;5005689;28;20217;-86
2023/11/10 07:39:28;;;;;;;4.47;3.10;;;6.30;95.30;;;;;;5006462;28;20206;-86
2023/11/10 07:41:56;;;;;;;4.85;2.95;;;6.30;95.40;;;;;;5005864;28;20760;-86
2023/11/10 07:44:22;;;;;;;7.00;3.33;;;6.50;95.00;;;;;;5005820;28;20719;-86
2023/11/10 07:46:49;;;;;;;8.65;3.17;;;6.60;95.40;;;;;;5014822;28;20223;-85
2023/11/10 07:49:16;;;;;;;5.68;4.28;;;6.70;95.40;;;;;;4996837;28;20614;-87
2023/11/10 07:51:43;;;;;;;5.28;2.78;;;6.90;95.70;;;;;;5009703;28;20215;-87
2023/11/10 07:54:16;;;;;;;8.02;3.40;;;7.20;95.50;;;;;;5007292;28;20523;-85
2023/11/10 07:56:44;;;;;;;9.63;2.70;;;7.40;94.80;;;;;;5014302;28;20214;-88
2023/11/10 07:59:11;;;;;;;9.30;2.42;;;7.60;94.50;;;;;;5001800;28;20203;-88
2023/11/10 08:01:37;;;;;;;3.78;2.50;;;7.70;93.90;;;;;;5002814;28;20203;-87
2023/11/10 08:04:05;;;;;;;6.82;2.35;;;7.90;93.00;;;;;;5010523;28;20211;-87
2023/11/10 08:06:33;;;;;;;2.17;1.98;;;8.10;92.80;;;;;;5007683;28;20299;-87
2023/11/10 08:09:01;;;;;;;2.25;2.05;;;8.10;92.50;;;;;;5007928;28;20313;-87
2023/11/10 08:11:30;;;;;;;2.97;1.90;;;8.20;92.60;;;;;;5009551;28;20199;-87
2023/11/10 08:13:56;;;;;;;2.60;2.40;;;8.30;92.30;;;;;;5008090;28;20202;-87
2023/11/10 08:16:24;;;;;;;3.47;1.90;;;8.60;92.30;;;;;;5009722;28;20203;-88
2023/11/10 08:18:51;;;;;;;2.72;1.92;;;8.80;92.20;;;;;;5004175;28;20656;-87
2023/11/10 08:21:18;;;;;;;2.03;1.85;;;9.30;90.50;;;;;;5008518;28;20583;-87
2023/11/10 08:23:45;;;;;;;2.83;1.70;;;9.60;88.90;;;;;;5014015;28;20571;-87
2023/11/10 08:26:12;;;;;;;2.25;1.80;;;9.70;86.80;;;;;;5005342;28;20669;-87
2023/11/10 08:28:41;;;;;;;2.75;2.33;;;9.70;86.70;;;;;;5003726;28;20322;-86
2023/11/10 08:31:07;;;;;;;1.80;1.70;;;9.70;85.50;;;;;;4996121;28;20219;-87
2023/11/10 08:33:35;;;;;;;1.65;1.50;;;9.60;85.80;;;;;;5012997;28;20207;-87
2023/11/10 08:36:01;;;;;;;3.20;1.52;;;9.60;86.30;;;;;;5010688;28;20214;-88
2023/11/10 08:38:31;;;;;;;1.60;1.50;;;9.60;85.20;;;;;;5006991;28;20681;-87
2023/11/10 08:40:58;;;;;;;2.10;1.52;;;9.60;85.00;;;;;;5010300;28;20211;-87
2023/11/10 08:43:27;;;;;;;1.45;1.35;;;9.60;85.70;;;;;;5008816;28;20203;-87
2023/11/10 08:45:55;;;;;;;1.90;1.50;;;9.60;85.80;;;;;;5008877;28;20207;-87
2023/11/10 08:48:22;;;;;;;1.73;1.40;;;9.60;85.20;;;;;;5013201;28;20580;-88
2023/11/10 08:50:49;;;;;;;2.17;1.60;;;9.50;85.60;;;;;;5010146;28;20222;-90
2023/11/10 08:53:15;;;;;;;1.70;1.40;;;9.50;87.40;;;;;;5003266;28;20200;-88
2023/11/10 08:55:42;;;;;;;1.50;1.40;;;9.60;86.20;;;;;;5004702;28;20215;-87
2023/11/10 08:58:09;;;;;;;1.73;1.55;;;9.60;85.20;;;;;;5008596;28;20215;-87
2023/11/10 09:00:36;;;;;;;1.50;1.30;;;9.60;85.30;;;;;;5007650;28;20207;-88
2023/11/10 09:03:05;;;;;;;1.88;1.30;;;9.60;85.00;;;;;;5003967;28;20222;-87
2023/11/10 09:05:31;;;;;;;1.63;1.30;;;9.70;84.60;;;;;;5012404;28;20557;-88
2023/11/10 09:08:00;;;;;;;1.02;1.02;;;9.70;84.50;;;;;;5000544;28;20649;-87
2023/11/10 09:10:27;;;;;;;1.20;1.10;;;9.70;86.00;;;;;;5005975;28;20310;-87
2023/11/10 09:12:54;;;;;;;1.17;0.93;;;9.80;85.80;;;;;;5001361;28;20290;-87
2023/11/10 09:15:24;;;;;;;1.27;1.10;;;9.80;87.80;;;;;;5003019;28;20203;-87
2023/11/10 09:17:51;;;;;;;1.20;1.10;;;9.80;86.90;;;;;;5010562;28;20207;-87
2023/11/10 09:20:21;;;;;;;0.90;0.90;;;9.80;88.00;;;;;;5005145;28;20198;-87
2023/11/10 09:22:49;;;;;;;1.00;1.00;;;9.80;89.10;;;;;;5007153;28;20203;-86
2023/11/10 09:25:20;;;;;;;2.00;1.00;;;9.80;87.70;;;;;;5015990;28;20230;-88
2023/11/10 09:27:47;;;;;;;1.95;1.00;;;9.70;88.50;;;;;;5009243;28;20222;-87
2023/11/10 09:30:17;;;;;;;1.00;0.90;;;9.70;87.70;;;;;;5009720;28;20230;-85
2023/11/10 09:32:43;;;;;;;1.10;1.00;;;9.50;87.40;;;;;;4997231;28;20594;-88
2023/11/10 09:35:16;;;;;;;0.80;0.80;;;9.50;89.40;;;;;;5012864;28;20199;-85
2023/11/10 09:37:46;;;;;;;0.77;0.77;;;9.40;90.10;;;;;;5009350;28;20459;-87
2023/11/10 09:40:13;;;;;;;0.75;0.75;;;9.20;90.50;;;;;;5004832;28;20286;-88
2023/11/10 09:42:42;;;;;;;1.00;0.90;;;9.20;90.50;;;;;;5007143;28;20316;-87
2023/11/10 09:45:12;;;;;;;0.95;0.90;;;9.30;90.50;;;;;;5006611;28;20295;-86
2023/11/10 09:47:41;;;;;;;0.70;0.70;;;9.50;90.60;;;;;;4997852;28;20206;-87
2023/11/10 09:50:09;;;;;;;0.80;0.80;;;9.40;90.60;;;;;;5009943;28;20219;-87
2023/11/10 09:52:38;;;;;;;0.95;0.90;;;9.60;90.60;;;;;;5004059;28;20226;-88
2023/11/10 09:55:07;;;;;;;0.55;0.55;;;9.60;90.60;;;;;;5000460;28;20684;-87
2023/11/10 09:57:34;;;;;;;0.80;0.80;;;9.80;90.60;;;;;;5005152;28;20195;-87
2023/11/10 10:00:03;;;;;;;1.00;1.00;;;9.80;90.50;;;;;;5010712;28;20206;-87
2023/11/10 10:02:30;;;;;;;1.02;0.77;;;9.70;90.60;;;;;;5006812;28;20242;-88
2023/11/10 10:04:57;;;;;;;0.60;0.60;;;9.70;89.50;;;;;;5010147;28;20214;-88
2023/11/10 10:07:26;;;;;;;0.77;0.77;;;9.60;87.20;;;;;;5005897;28;20195;-87
2023/11/10 10:09:53;;;;;;;0.73;0.70;;;9.50;90.00;;;;;;5008808;28;20326;-87
2023/11/10 10:12:24;;;;;;;1.13;1.02;;;9.50;90.10;;;;;;5006474;28;20214;-86
2023/11/10 10:14:55;;;;;;;1.33;0.90;;;9.40;90.60;;;;;;5004314;28;20209;-85
2023/11/10 10:17:31;;;;;;;0.80;0.80;;;9.40;90.60;;;;;;5006140;28;20191;-86
2023/11/10 10:20:05;;;;;;;0.70;0.70;;;9.60;90.60;;;;;;5006629;28;20219;-86
2023/11/10 10:22:32;;;;;;;1.25;0.80;;;9.80;90.60;;;;;;5004896;28;20203;-86
2023/11/10 10:24:59;;;;;;;1.00;0.90;;;10.00;89.50;;;;;;5002845;28;20218;-86
2023/11/10 10:27:28;;;;;;;0.70;0.70;;;10.10;88.40;;;;;;5008721;28;20191;-87
2023/11/10 10:29:54;;;;;;;1.33;0.88;;;10.20;84.60;;;;;;5008060;28;20281;-87
2023/11/10 10:32:23;;;;;;;0.82;0.82;;;10.30;82.80;;;;;;5003060;28;20226;-87
2023/11/10 10:34:50;;;;;;;1.95;0.70;;;10.50;82.90;;;;;;5005130;28;20234;-87
2023/11/10 10:37:18;;;;;;;0.63;0.63;;;10.50;78.30;;;;;;5003146;28;20195;-86
2023/11/10 10:39:47;;;;;;;0.60;0.60;;;10.60;77.10;;;;;;5009641;28;20211;-88
2023/11/10 10:42:15;;;;;;;0.93;0.93;;;11.00;80.00;;;;;;5001971;28;20683;-88
2023/11/10 10:44:46;;;;;;;0.80;0.80;;;11.50;63.70;;;;;;5001711;28;20682;-88
2023/11/10 10:47:15;;;;;;;0.60;0.60;;;11.80;63.30;;;;;;5012509;28;20238;-88
2023/11/10 10:49:43;;;;;;;0.70;0.70;;;12.10;54.20;;;;;;5008317;28;20227;-87
2023/11/10 10:52:10;;;;;;;0.70;0.70;;;12.10;48.70;;;;;;5000645;28;20224;-87
2023/11/10 10:54:38;;;;;;;0.57;0.57;;;11.80;48.40;;;;;;5000953;28;20192;-88
2023/11/10 10:57:06;;;;;;;0.50;0.50;;;11.60;48.20;;;;;;5008298;28;20199;-88
2023/11/10 10:59:35;;;;;;;0.70;0.70;;;11.50;47.00;;;;;;5004231;28;20224;-88
2023/11/10 11:02:08;;;;;;;1.00;0.80;;;11.40;48.10;;;;;;5008607;28;20204;-88
2023/11/10 11:04:51;;;;;;;0.55;0.55;;;11.50;48.20;;;;;;4999946;28;20200;-86
2023/11/10 11:07:39;;;;;;;0.50;0.50;;;11.70;48.40;;;;;;5008480;28;20219;-87
2023/11/10 11:10:17;;;;;;;0.60;0.60;;;11.80;48.40;;;;;;5003374;28;20211;-87
2023/11/10 11:13:18;;;;;;;0.90;0.50;;;11.80;52.00;;;;;;5000670;28;20230;-87
2023/11/10 11:15:59;;;;;;;0.50;0.50;;;11.70;55.90;;;;;;5002182;28;20622;-88
2023/11/10 11:18:52;;;;;;;0.82;0.80;;;11.40;56.10;;;;;;5004432;28;20206;-88
2023/11/10 11:21:20;;;;;;;0.70;0.70;;;11.30;62.00;;;;;;4998097;28;20535;-87
2023/11/10 11:23:50;;;;;;;0.80;0.80;;;11.20;63.50;;;;;;5002431;28;20206;-88
2023/11/10 11:26:19;;;;;;;0.60;0.60;;;11.20;61.40;;;;;;5003818;28;20199;-88
2023/11/10 11:28:45;;;;;;;0.70;0.70;;;11.00;59.40;;;;;;5005256;28;20657;-87
2023/11/10 11:31:13;;;;;;;2.35;0.80;;;10.90;63.80;;;;;;5007299;28;20235;-88
2023/11/10 11:33:47;;;;;;;1.05;0.95;;;10.80;61.70;;;;;;5000658;28;20213;-87
2023/11/10 11:36:18;;;;;;;0.60;0.60;;;10.60;60.10;;;;;;5007074;28;20210;-87
2023/11/10 11:38:46;;;;;;;0.70;0.70;;;10.50;62.60;;;;;;5007608;28;20285;-88
2023/11/10 11:41:15;;;;;;;2.13;0.60;;;10.20;64.10;;;;;;5005305;28;20205;-87
2023/11/10 11:43:49;;;;;;;2.70;0.80;;;9.90;70.40;;;;;;5002430;28;20523;-87
2023/11/10 11:46:16;;;;;;;0.60;0.60;;;10.00;70.10;;;;;;5004389;28;20507;-86
2023/11/10 11:48:44;;;;;;;1.48;0.75;;;9.90;74.90;;;;;;5007859;28;20660;-87
2023/11/10 11:51:13;;;;;;;1.02;0.60;;;9.80;75.80;;;;;;5008789;28;20707;-86
2023/11/10 11:53:39;;;;;;;0.88;0.88;;;9.70;77.60;;;;;;5004249;28;20195;-87
2023/11/10 11:56:08;;;;;;;0.65;0.65;;;9.60;79.00;;;;;;5009663;28;20210;-87
2023/11/10 11:58:36;;;;;;;0.80;0.77;;;9.60;80.30;;;;;;5003383;28;20253;-87
2023/11/10 12:01:03;;;;;;;0.90;0.90;;;9.60;80.90;;;;;;5009211;28;20264;-88
2023/11/10 12:03:29;;;;;;;1.00;0.98;;;9.60;81.20;;;;;;5002479;28;20223;-85
2023/11/10 12:05:57;;;;;;;0.88;0.88;;;9.70;78.70;;;;;;5001750;28;20211;-84
2023/11/10 12:08:26;;;;;;;0.63;0.63;;;9.80;78.30;;;;;;5004265;28;20686;-85
2023/11/10 12:10:53;;;;;;;0.63;0.63;;;10.00;73.70;;;;;;5005771;28;20219;-90
2023/11/10 12:13:22;;;;;;;2.05;1.08;;;10.00;73.00;;;;;;5003347;28;20195;-84
2023/11/10 12:15:49;;;;;;;0.60;0.60;;;9.90;74.90;;;;;;5002471;28;20211;-85
2023/11/10 12:18:17;;;;;;;0.82;0.82;;;9.80;77.70;;;;;;5000411;28;20226;-91
2023/11/10 12:20:44;;;;;;;1.20;1.08;;;9.70;77.50;;;;;;5001210;28;20294;-85
2023/11/10 12:23:14;;;;;;;0.88;0.88;;;9.70;79.10;;;;;;5000443;28;20209;-86
2023/11/10 12:25:44;;;;;;;0.90;0.80;;;9.60;80.30;;;;;;5008818;28;20192;-85
2023/11/10 12:28:13;;;;;;;0.90;0.90;;;9.60;80.90;;;;;;5006874;28;20247;-85
2023/11/10 12:30:40;;;;;;;2.05;0.90;;;9.50;80.70;;;;;;5003989;28;20231;-87
2023/11/10 12:33:09;;;;;;;0.82;0.82;;;9.50;81.70;;;;;;5006448;28;20195;-88
2023/11/10 12:35:39;;;;;;;0.85;0.80;;;9.50;82.20;;;;;;5014418;28;20199;-89
2023/11/10 12:38:07;;;;;;;0.80;0.80;;;9.40;80.50;;;;;;5012862;28;20207;-88
2023/11/10 12:40:37;;;;;;;1.83;0.80;;;9.50;79.50;;;;;;5009203;28;20640;-90
2023/11/10 12:43:07;;;;;;;0.77;0.77;;;9.70;80.90;;;;;;5010026;28;20211;-93
2023/11/10 12:45:34;;;;;;;1.92;0.70;;;9.80;81.50;;;;;;5019585;28;20200;-87
2023/11/10 12:48:00;;;;;;;0.77;0.77;;;10.00;77.70;;;;;;5037822;28;20182;-86
2023/11/10 12:50:30;;;;;;;0.70;0.70;;;10.20;77.80;;;;;;5030230;28;20215;-85
2023/11/10 12:52:57;;;;;;;0.57;0.57;;;10.30;73.40;;;;;;5010331;28;20811;-87
2023/11/10 12:55:24;;;;;;;0.90;0.90;;;10.40;73.10;;;;;;5013068;28;20199;-87
2023/11/10 12:57:52;;;;;;;1.85;0.68;;;10.40;70.00;;;;;;5013386;28;20259;-86
2023/11/10 13:00:20;;;;;;;0.80;0.80;;;10.40;68.90;;;;;;5005327;28;20215;-87